createdAt,value
2022-11-16T00:00:15.692Z,99547.81
2022-11-16T00:02:43.193Z,99521.69
2022-11-16T00:05:10.788Z,99538.41
2022-11-16T00:07:40.687Z,99530.00
2022-11-16T00:10:10.986Z,99530.00
2022-11-16T00:12:42.463Z,99521.56
2022-11-16T00:15:10.174Z,99530.00
2022-11-16T00:17:39.794Z,99525.16
2022-11-16T00:20:07.958Z,99519.53
2022-11-16T00:22:35.502Z,99518.72
2022-11-16T00:25:05.983Z,99516.25
2022-11-16T00:27:34.065Z,99520.59
2022-11-16T00:30:03.716Z,99513.31
2022-11-16T00:32:31.348Z,99515.69
2022-11-16T00:34:58.857Z,99513.56
2022-11-16T00:37:26.413Z,99506.50
2022-11-16T00:39:53.907Z,99501.12
2022-11-16T00:42:21.448Z,99495.72
2022-11-16T00:44:48.977Z,99488.69
2022-11-16T00:47:16.501Z,99484.03
2022-11-16T00:49:46.413Z,99487.53
2022-11-16T00:52:13.924Z,99486.22
2022-11-16T00:54:41.510Z,99480.84
2022-11-16T00:57:09.069Z,99477.41
2022-11-16T00:59:36.578Z,99471.75
2022-11-16T01:02:04.097Z,99469.88
2022-11-16T01:04:35.434Z,99464.47
2022-11-16T01:07:03.096Z,99466.69
2022-11-16T01:09:30.680Z,99469.97
2022-11-16T01:12:09.177Z,99462.69
2022-11-16T01:14:41.822Z,99464.81
2022-11-16T01:17:11.731Z,99463.19
2022-11-16T01:19:42.413Z,99450.50
2022-11-16T01:22:09.982Z,99439.88
2022-11-16T01:24:39.765Z,99431.03
2022-11-16T01:27:07.319Z,99428.81
2022-11-16T01:29:37.416Z,99433.25
2022-11-16T01:32:05.632Z,99431.94
2022-11-16T01:34:33.367Z,99428.66
2022-11-16T01:37:00.927Z,99423.50
2022-11-16T01:39:29.790Z,99420.81
2022-11-16T01:41:58.316Z,99424.06
2022-11-16T01:44:34.863Z,99407.06
2022-11-16T01:47:16.485Z,99412.47
2022-11-16T01:49:49.796Z,99406.81
2022-11-16T01:52:21.639Z,99400.84
2022-11-16T01:54:52.317Z,99400.34
2022-11-16T01:57:24.382Z,99398.72
2022-11-16T01:59:58.476Z,99395.19
2022-11-16T02:02:26.051Z,99396.59
2022-11-16T02:04:54.844Z,99380.97
2022-11-16T02:07:55.582Z,99383.66
2022-11-16T02:10:40.838Z,99391.53
2022-11-16T02:13:22.932Z,99380.22
2022-11-16T02:16:04.828Z,99382.72
2022-11-16T02:18:35.694Z,99377.78
2022-11-16T02:21:15.271Z,99374.81
2022-11-16T02:24:03.664Z,99374.81
2022-11-16T02:26:46.904Z,99366.50
2022-11-16T02:29:39.000Z,99364.84
2022-11-16T02:32:26.423Z,99358.41
2022-11-16T02:35:02.801Z,99352.19
2022-11-16T02:37:35.444Z,99354.41
2022-11-16T02:40:09.970Z,99353.34
2022-11-16T02:42:48.720Z,99344.09
2022-11-16T02:45:23.153Z,99354.41
2022-11-16T02:47:53.163Z,99344.16
2022-11-16T02:50:23.724Z,99337.94
2022-11-16T02:52:53.372Z,99344.97
2022-11-16T02:55:20.974Z,99336.06
2022-11-16T02:58:02.892Z,99331.47
2022-11-16T03:01:05.333Z,99325.03
2022-11-16T03:03:41.715Z,99327.72
2022-11-16T03:06:12.888Z,99323.37
2022-11-16T03:08:49.105Z,99326.66
2022-11-16T03:11:36.863Z,99323.94
2022-11-16T03:14:12.811Z,99321.25
2022-11-16T03:16:49.747Z,99316.91
2022-11-16T03:19:25.375Z,99315.84
2022-11-16T03:22:19.552Z,99317.72
2022-11-16T03:24:47.301Z,99320.19
2022-11-16T03:27:23.634Z,99317.50
2022-11-16T03:30:09.653Z,99303.16
2022-11-16T03:32:49.864Z,99302.34
2022-11-16T03:35:25.712Z,99305.06
2022-11-16T03:38:06.741Z,99303.16
2022-11-16T03:40:37.619Z,99303.97
2022-11-16T03:43:09.993Z,99298.59
2022-11-16T03:45:38.780Z,99293.75
2022-11-16T03:48:08.257Z,99291.63
2022-11-16T03:50:35.792Z,99292.69
2022-11-16T03:53:04.226Z,99292.94
2022-11-16T03:55:34.345Z,99280.81
2022-11-16T03:58:01.936Z,99284.59
2022-11-16T04:00:29.690Z,99277.31
2022-11-16T04:03:02.242Z,99277.81
2022-11-16T04:05:48.170Z,99278.13
2022-11-16T04:08:36.471Z,99276.78
2022-11-16T04:11:22.150Z,99272.72
2022-11-16T04:14:10.472Z,99261.34
2022-11-16T04:16:55.444Z,99256.19
2022-11-16T04:19:40.261Z,99262.41
2022-11-16T04:22:35.090Z,99254.87
2022-11-16T04:25:19.930Z,99240.00
2022-11-16T04:28:05.677Z,99253.56
2022-11-16T04:30:56.363Z,99251.12
2022-11-16T04:33:44.166Z,99243.28
2022-11-16T04:36:32.157Z,99241.63
2022-11-16T04:39:00.756Z,99240.31
2022-11-16T04:41:45.497Z,99240.88
2022-11-16T04:44:12.999Z,99247.66
2022-11-16T04:46:58.282Z,99241.44
2022-11-16T04:49:25.829Z,99232.22
2022-11-16T04:51:53.428Z,99242.75
2022-11-16T04:54:21.071Z,99235.22
2022-11-16T04:56:48.861Z,99233.34
2022-11-16T04:59:18.661Z,99234.72
2022-11-16T05:02:03.798Z,99229.56
2022-11-16T05:04:31.364Z,99221.28
2022-11-16T05:06:58.935Z,99227.12
2022-11-16T05:09:26.544Z,99226.81
2022-11-16T05:11:54.055Z,99227.38
2022-11-16T05:14:21.555Z,99229.00
2022-11-16T05:16:49.027Z,99234.41
2022-11-16T05:19:50.021Z,99221.97
2022-11-16T05:22:19.851Z,99227.62
2022-11-16T05:24:47.460Z,99219.22
2022-11-16T05:27:18.011Z,99215.44
2022-11-16T05:29:49.550Z,99222.47
2022-11-16T05:32:18.750Z,99215.50
2022-11-16T05:34:46.896Z,99216.56
2022-11-16T05:37:18.249Z,99207.09
2022-11-16T05:39:45.931Z,99202.78
2022-11-16T05:42:13.509Z,99200.31
2022-11-16T05:44:41.024Z,99192.78
2022-11-16T05:47:10.849Z,99200.37
2022-11-16T05:49:40.754Z,99189.00
2022-11-16T05:52:08.259Z,99191.16
2022-11-16T05:54:38.239Z,99194.97
2022-11-16T05:57:05.761Z,99186.81
2022-11-16T05:59:33.309Z,99186.75
2022-11-16T06:02:01.036Z,99184.87
2022-11-16T06:04:28.571Z,99174.59
2022-11-16T06:06:56.119Z,99170.31
2022-11-16T06:09:23.750Z,99170.06
2022-11-16T06:11:52.494Z,99176.03
2022-11-16T06:14:20.070Z,99192.22
2022-11-16T06:16:47.594Z,99182.50
2022-11-16T06:19:17.991Z,99181.97
2022-11-16T06:21:46.120Z,99175.78
2022-11-16T06:24:13.723Z,99178.41
2022-11-16T06:26:41.356Z,99186.00
2022-11-16T06:29:08.923Z,99189.53
2022-11-16T06:31:36.481Z,99182.81
2022-11-16T06:34:06.585Z,99175.25
2022-11-16T06:36:37.210Z,99185.00
2022-11-16T06:39:04.739Z,99175.31
2022-11-16T06:41:32.884Z,99176.94
2022-11-16T06:44:04.211Z,99177.50
2022-11-16T06:46:32.292Z,99143.31
2022-11-16T06:49:03.078Z,99164.22
2022-11-16T06:51:30.634Z,99160.69
2022-11-16T06:53:58.155Z,99161.50
2022-11-16T06:56:25.801Z,99163.69
2022-11-16T06:58:53.796Z,99156.66
2022-11-16T07:01:21.636Z,99162.06
2022-11-16T07:03:49.184Z,99155.34
2022-11-16T07:06:17.362Z,99156.16
2022-11-16T07:08:44.980Z,99151.25
2022-11-16T07:11:12.574Z,99154.84
2022-11-16T07:13:43.343Z,99147.81
2022-11-16T07:16:12.819Z,99154.03
2022-11-16T07:18:41.784Z,99150.25
2022-11-16T07:21:16.749Z,99152.69
2022-11-16T07:23:44.878Z,99151.41
2022-11-16T07:26:14.761Z,99148.44
2022-11-16T07:28:47.944Z,99143.59
2022-11-16T07:31:17.256Z,99140.91
2022-11-16T07:33:45.983Z,99144.41
2022-11-16T07:36:15.803Z,99134.16
2022-11-16T07:38:43.526Z,99146.09
2022-11-16T07:41:13.941Z,99140.44
2022-11-16T07:43:42.153Z,99141.56
2022-11-16T07:49:08.457Z,99134.81
2022-11-16T07:51:41.195Z,99126.72
2022-11-16T07:54:08.729Z,99124.84
2022-11-16T07:56:36.238Z,99117.28
2022-11-16T07:59:06.593Z,99116.72
2022-11-16T08:01:34.494Z,99120.25
2022-11-16T08:04:02.800Z,99108.63
2022-11-16T08:06:32.310Z,99108.91
2022-11-16T08:09:04.741Z,99103.28
2022-11-16T08:11:34.896Z,99107.63
2022-11-16T08:14:04.535Z,99109.25
2022-11-16T08:16:33.349Z,99110.88
2022-11-16T08:19:03.684Z,99111.19
2022-11-16T08:21:33.613Z,99110.88
2022-11-16T08:24:01.535Z,99105.75
2022-11-16T08:26:29.131Z,99109.56
2022-11-16T08:28:57.246Z,99110.38
2022-11-16T08:31:29.397Z,99107.91
2022-11-16T08:33:57.598Z,99106.34
2022-11-16T08:36:25.150Z,99105.81
2022-11-16T08:38:55.967Z,99108.47
2022-11-16T08:41:25.888Z,99097.16
2022-11-16T08:43:54.079Z,99108.22
2022-11-16T08:46:23.411Z,99097.66
2022-11-16T08:48:50.990Z,99098.25
2022-11-16T08:51:20.660Z,99088.50
2022-11-16T08:53:49.878Z,99100.44
2022-11-16T08:56:19.243Z,99102.06
2022-11-16T08:58:47.936Z,99092.94
2022-11-16T09:01:20.565Z,99092.63
2022-11-16T09:03:48.179Z,99094.56
2022-11-16T09:06:19.074Z,99103.75
2022-11-16T09:08:47.294Z,99093.00
2022-11-16T09:11:17.764Z,99093.03
2022-11-16T09:13:46.688Z,99086.56
2022-11-16T09:16:16.719Z,99085.22
2022-11-16T09:18:47.169Z,99085.47
2022-11-16T09:21:32.655Z,99085.69
2022-11-16T09:24:02.721Z,99096.25
2022-11-16T09:26:32.937Z,99091.09
2022-11-16T09:29:04.493Z,99082.06
2022-11-16T09:31:34.759Z,99082.62
2022-11-16T09:34:03.177Z,99066.72
2022-11-16T09:36:39.920Z,99074.38
2022-11-16T09:39:29.412Z,99076.56
2022-11-16T09:42:03.738Z,99070.63
2022-11-16T09:44:55.922Z,99058.47
2022-11-16T09:47:27.542Z,99064.97
2022-11-16T09:50:03.859Z,99062.84
2022-11-16T09:52:52.561Z,99057.16
2022-11-16T09:55:33.659Z,99062.31
2022-11-16T09:58:04.709Z,99049.56
2022-11-16T10:00:36.822Z,99039.56
2022-11-16T10:03:13.106Z,99027.09
2022-11-16T10:05:46.654Z,99041.50
2022-11-16T10:08:35.649Z,99034.19
2022-11-16T10:11:12.681Z,99022.91
2022-11-16T10:13:43.255Z,99025.34
2022-11-16T10:16:36.657Z,99019.97
2022-11-16T10:19:19.265Z,99021.59
2022-11-16T10:22:23.835Z,99019.44
2022-11-16T10:25:24.926Z,99015.91
2022-11-16T10:28:10.683Z,99005.09
2022-11-16T10:30:49.711Z,99012.94
2022-11-16T10:33:21.972Z,99005.63
2022-11-16T10:35:53.641Z,99007.25
2022-11-16T10:38:30.305Z,99000.25
2022-11-16T10:41:20.855Z,99003.75
2022-11-16T10:43:49.867Z,98988.31
2022-11-16T10:46:25.320Z,98989.16
2022-11-16T10:49:17.535Z,98979.44
2022-11-16T10:51:45.321Z,98973.22
2022-11-16T10:54:14.627Z,98981.88
2022-11-16T10:56:45.597Z,98974.31
2022-11-16T10:59:21.344Z,98961.06
2022-11-16T11:01:56.124Z,98960.78
2022-11-16T11:04:29.052Z,98952.41
2022-11-16T11:07:01.978Z,98958.09
2022-11-16T11:09:32.916Z,98947.81
2022-11-16T11:12:33.505Z,98954.06
2022-11-16T11:15:13.414Z,98945.97
2022-11-16T11:17:44.086Z,98938.38
2022-11-16T11:20:17.580Z,98938.62
2022-11-16T11:22:54.235Z,98935.09
2022-11-16T11:25:26.715Z,98937.00
2022-11-16T11:28:05.113Z,98939.41
2022-11-16T11:30:35.162Z,98929.41
2022-11-16T11:33:10.080Z,98925.63
2022-11-16T11:35:37.684Z,98925.09
2022-11-16T11:38:08.563Z,98928.59
2022-11-16T11:40:36.508Z,98924.00
2022-11-16T11:43:08.898Z,98914.81
2022-11-16T11:45:39.700Z,98911.31
2022-11-16T11:48:26.180Z,98897.50
2022-11-16T11:51:02.504Z,98907.28
2022-11-16T11:53:48.798Z,98905.38
2022-11-16T11:56:16.754Z,98901.88
2022-11-16T11:58:45.392Z,98892.12
2022-11-16T12:01:34.876Z,98893.47
2022-11-16T12:04:36.100Z,98892.12
2022-11-16T12:07:12.387Z,98896.41
2022-11-16T12:09:51.756Z,98897.75
2022-11-16T12:12:44.149Z,98879.63
2022-11-16T12:15:37.236Z,98895.09
2022-11-16T12:18:14.054Z,98889.41
2022-11-16T12:20:59.951Z,98896.19
2022-11-16T12:23:34.733Z,98894.56
2022-11-16T12:26:34.102Z,98893.19
2022-11-16T12:29:23.413Z,98893.47
2022-11-16T12:32:16.064Z,98886.66
2022-11-16T12:34:57.841Z,98888.84
2022-11-16T12:37:40.483Z,98877.75
2022-11-16T12:40:10.776Z,98883.44
2022-11-16T12:42:58.508Z,98874.50
2022-11-16T12:45:43.439Z,98870.16
2022-11-16T12:48:16.614Z,98868.53
2022-11-16T12:50:53.075Z,98866.13
2022-11-16T12:53:23.276Z,98860.16
2022-11-16T12:56:09.781Z,98867.47
2022-11-16T12:58:59.864Z,98860.72
2022-11-16T13:01:40.542Z,98867.75
2022-11-16T13:04:21.970Z,98870.44
2022-11-16T13:07:10.402Z,98865.28
2022-11-16T13:09:41.743Z,98863.66
2022-11-16T13:12:17.090Z,98863.41
2022-11-16T13:14:50.995Z,98863.94
2022-11-16T13:17:23.957Z,98861.78
2022-11-16T13:20:29.247Z,98862.59
2022-11-16T13:23:11.830Z,98859.63
2022-11-16T13:26:17.146Z,98863.94
2022-11-16T13:29:16.512Z,98862.84
2022-11-16T13:31:49.231Z,98863.13
2022-11-16T13:34:38.914Z,98862.03
2022-11-16T13:37:37.753Z,98867.19
2022-11-16T13:40:05.289Z,98860.69
2022-11-16T13:42:45.745Z,98853.66
2022-11-16T13:45:20.877Z,98855.28
2022-11-16T13:47:54.783Z,98852.84
2022-11-16T13:50:26.182Z,98854.47
2022-11-16T13:54:04.086Z,98846.09
2022-11-16T13:55:58.830Z,98846.91
2022-11-16T13:58:29.645Z,98848.25
2022-11-16T14:01:08.029Z,98846.34
2022-11-16T14:03:41.197Z,98850.97
2022-11-16T14:06:14.970Z,98849.59
2022-11-16T14:08:46.617Z,98823.56
2022-11-16T14:11:33.676Z,98840.94
2022-11-16T14:14:25.914Z,98837.97
2022-11-16T14:16:53.472Z,98831.75
2022-11-16T14:19:47.507Z,98831.47
2022-11-16T14:22:54.277Z,98836.34
2022-11-16T14:25:30.632Z,98834.19
2022-11-16T14:28:08.157Z,98821.19
2022-11-16T14:30:57.715Z,98827.16
2022-11-16T14:33:36.028Z,98819.03
2022-11-16T14:36:08.732Z,98819.78
2022-11-16T14:38:42.548Z,98823.81
2022-11-16T14:41:26.128Z,98827.59
2022-11-16T14:43:58.490Z,98831.38
2022-11-16T14:46:38.178Z,98819.47
2022-11-16T14:49:06.235Z,98826.50
2022-11-16T14:51:40.719Z,98827.31
2022-11-16T14:54:51.647Z,98816.22
2022-11-16T14:57:24.252Z,98809.41
2022-11-16T15:00:10.760Z,98811.84
2022-11-16T15:02:39.002Z,98804.81
2022-11-16T15:05:07.843Z,98802.66
2022-11-16T15:07:35.551Z,98801.84
2022-11-16T15:10:06.630Z,98793.75
2022-11-16T15:12:44.839Z,98793.75
2022-11-16T15:15:12.423Z,98789.16
2022-11-16T15:17:42.982Z,98798.88
2022-11-16T15:20:16.911Z,98803.19
2022-11-16T15:22:58.527Z,98794.28
2022-11-16T15:25:38.540Z,98799.97
2022-11-16T15:28:28.809Z,98785.91
2022-11-16T15:31:04.400Z,98795.38
2022-11-16T15:33:37.934Z,98793.47
2022-11-16T15:36:41.718Z,98791.84
2022-11-16T15:39:21.922Z,98791.31
2022-11-16T15:41:50.546Z,98797.25
2022-11-16T15:44:24.188Z,98786.44
2022-11-16T15:46:55.443Z,98786.19
2022-11-16T15:49:39.449Z,98778.84
2022-11-16T15:52:07.322Z,98789.97
2022-11-16T15:55:04.781Z,98787.00
2022-11-16T15:57:32.737Z,98792.41
2022-11-16T16:00:00.367Z,98781.03
2022-11-16T16:02:31.754Z,98784.56
2022-11-16T16:05:03.997Z,98775.91
2022-11-16T16:07:39.737Z,98778.59
2022-11-16T16:10:19.967Z,98773.19
2022-11-16T16:12:52.228Z,98782.94
2022-11-16T16:15:30.506Z,98780.50
2022-11-16T16:18:01.933Z,98785.91
2022-11-16T16:20:34.047Z,98777.25
2022-11-16T16:23:15.861Z,98755.59
2022-11-16T16:25:49.977Z,98780.50
2022-11-16T16:28:18.520Z,98773.47
2022-11-16T16:30:46.131Z,98786.97
2022-11-16T16:33:25.723Z,98784.28
2022-11-16T16:35:53.469Z,98784.28
2022-11-16T16:38:21.376Z,98782.66
2022-11-16T16:40:48.998Z,98785.34
2022-11-16T16:43:18.175Z,98780.22
2022-11-16T16:45:46.052Z,98780.22
2022-11-16T16:48:17.073Z,98781.84
2022-11-16T16:50:44.894Z,98784.00
2022-11-16T16:53:15.432Z,98746.69
2022-11-16T16:55:44.519Z,98776.16
2022-11-16T16:58:16.299Z,98773.47
2022-11-16T17:00:44.298Z,98773.19
2022-11-16T17:03:12.251Z,98770.22
2022-11-16T17:05:39.838Z,98768.88
2022-11-16T17:08:09.523Z,98769.94
2022-11-16T17:10:39.407Z,98765.09
2022-11-16T17:13:06.978Z,98768.88
2022-11-16T17:15:34.601Z,98758.34
2022-11-16T17:18:02.632Z,98763.75
2022-11-16T17:20:31.699Z,98755.34
2022-11-16T17:22:59.286Z,98763.19
2022-11-16T17:25:26.924Z,98762.12
2022-11-16T17:27:55.089Z,98756.16
2022-11-16T17:30:22.744Z,98753.19
2022-11-16T17:32:50.312Z,98749.41
2022-11-16T17:35:17.959Z,98749.41
2022-11-16T17:37:46.880Z,98752.38
2022-11-16T17:40:15.069Z,98755.62
2022-11-16T17:42:43.130Z,98751.56
2022-11-16T17:45:13.388Z,98747.78
2022-11-16T17:47:41.256Z,98751.56
2022-11-16T17:50:09.851Z,98753.19
2022-11-16T17:52:37.500Z,98751.03
2022-11-16T17:55:05.284Z,98751.31
2022-11-16T17:57:32.924Z,98750.78
2022-11-16T18:00:00.491Z,98751.03
2022-11-16T18:02:28.105Z,98747.25
2022-11-16T18:04:55.645Z,98752.94
2022-11-16T18:07:23.356Z,98744.28
2022-11-16T18:09:56.495Z,98749.69
2022-11-16T18:12:24.084Z,98751.84
2022-11-16T18:15:21.314Z,98745.63
2022-11-16T18:17:41.080Z,98736.72
2022-11-16T18:20:11.876Z,98741.59
2022-11-16T18:22:41.678Z,98740.78
2022-11-16T18:25:11.351Z,98739.44
2022-11-16T18:27:38.962Z,98739.44
2022-11-16T18:30:07.185Z,98736.72
2022-11-16T18:32:36.410Z,98717.25
2022-11-16T18:35:10.004Z,98736.47
2022-11-16T18:37:39.801Z,98741.59
2022-11-16T18:40:12.125Z,98736.47
2022-11-16T18:42:41.709Z,98741.59
2022-11-16T18:45:12.721Z,98742.13
2022-11-16T18:47:40.262Z,98739.97
2022-11-16T18:50:18.020Z,98738.88
2022-11-16T18:52:49.068Z,98732.94
2022-11-16T18:55:16.754Z,98734.03
2022-11-16T18:57:44.304Z,98739.16
2022-11-16T19:00:16.218Z,98740.78
2022-11-16T19:02:43.773Z,98738.63
2022-11-16T19:05:11.360Z,98731.84
2022-11-16T19:07:39.061Z,98731.59
2022-11-16T19:10:07.164Z,98727.00
2022-11-16T19:12:35.304Z,98729.19
2022-11-16T19:15:02.837Z,98724.56
2022-11-16T19:17:31.824Z,98724.56
2022-11-16T19:19:59.413Z,98728.87
2022-11-16T19:22:27.011Z,98729.16
2022-11-16T19:25:00.522Z,98725.66
2022-11-16T19:27:33.542Z,98725.09
2022-11-16T19:30:01.370Z,98713.47
2022-11-16T19:32:31.633Z,98713.75
2022-11-16T19:34:59.306Z,98715.63
2022-11-16T19:37:26.983Z,98700.50
2022-11-16T19:39:54.547Z,98715.09
2022-11-16T19:42:24.576Z,98721.03
2022-11-16T19:44:54.499Z,98698.88
2022-11-16T19:47:26.252Z,98716.19
2022-11-16T19:49:54.151Z,98714.56
2022-11-16T19:52:21.787Z,98712.41
2022-11-16T19:54:49.326Z,98715.38
2022-11-16T19:57:20.490Z,98708.62
2022-11-16T19:59:52.819Z,98708.62
2022-11-16T20:02:22.565Z,98712.41
2022-11-16T20:04:51.156Z,98710.78
2022-11-16T20:07:21.931Z,98709.97
2022-11-16T20:09:53.340Z,98709.97
2022-11-16T20:12:23.778Z,98716.19
2022-11-16T20:14:51.383Z,98708.06
2022-11-16T20:17:18.989Z,98721.59
2022-11-16T20:19:48.844Z,98718.88
2022-11-16T20:22:16.812Z,98721.59
2022-11-16T20:24:44.365Z,98717.53
2022-11-16T20:27:12.643Z,98719.97
2022-11-16T20:29:40.216Z,98719.69
2022-11-16T20:32:11.061Z,98726.72
2022-11-16T20:34:43.544Z,98712.94
2022-11-16T20:37:16.367Z,98707.53
2022-11-16T20:39:45.961Z,98708.62
2022-11-16T20:42:17.015Z,98706.44
2022-11-16T20:44:44.856Z,98715.63
2022-11-16T20:47:12.485Z,98707.53
2022-11-16T20:49:40.194Z,98718.88
2022-11-16T20:52:07.744Z,98711.31
2022-11-16T20:54:35.301Z,98710.25
2022-11-16T20:57:04.727Z,98713.22
2022-11-16T20:59:33.111Z,98709.97
2022-11-16T21:02:04.624Z,98705.37
2022-11-16T21:04:32.927Z,98707.00
2022-11-16T21:07:00.580Z,98711.06
2022-11-16T21:09:50.671Z,98704.03
2022-11-16T21:12:41.498Z,98700.25
2022-11-16T21:15:10.635Z,98691.59
2022-11-16T21:17:40.447Z,98698.63
2022-11-16T21:20:27.015Z,98701.84
2022-11-16T21:22:55.604Z,98691.06
2022-11-16T21:25:23.929Z,98685.91
2022-11-16T21:27:51.532Z,98679.97
2022-11-16T21:30:21.017Z,98685.91
2022-11-16T21:32:48.562Z,98669.44
2022-11-16T21:35:26.951Z,98680.22
2022-11-16T21:37:56.614Z,98680.22
2022-11-16T21:40:24.322Z,98687.00
2022-11-16T21:42:56.845Z,98676.19
2022-11-16T21:45:24.954Z,98670.25
2022-11-16T21:47:52.479Z,98660.78
2022-11-16T21:50:36.305Z,98667.00
2022-11-16T21:53:07.087Z,98652.94
2022-11-16T21:55:35.311Z,98656.47
2022-11-16T21:58:03.991Z,98649.97
2022-11-16T22:00:35.829Z,98646.72
2022-11-16T22:03:05.603Z,98640.47
2022-11-16T22:05:51.163Z,98652.94
2022-11-16T22:08:18.740Z,98652.37
2022-11-16T22:10:52.175Z,98654.28
2022-11-16T22:13:24.097Z,98646.47
2022-11-16T22:15:51.698Z,98643.19
2022-11-16T22:18:21.860Z,98634.53
2022-11-16T22:20:51.033Z,98639.94
2022-11-16T22:23:23.107Z,98636.44
2022-11-16T22:25:51.852Z,98649.38
2022-11-16T22:28:21.919Z,98679.91
2022-11-16T22:30:52.256Z,98688.28
2022-11-16T22:33:20.047Z,98672.63
2022-11-16T22:35:47.983Z,98674.78
2022-11-16T22:38:15.798Z,98675.59
2022-11-16T22:40:50.338Z,98643.16
2022-11-16T22:43:20.408Z,98668.03
2022-11-16T22:45:48.200Z,98679.38
2022-11-16T22:48:16.515Z,98673.97
2022-11-16T22:50:44.326Z,98671.28
2022-11-16T22:53:11.954Z,98672.34
2022-11-16T22:55:42.349Z,98668.56
2022-11-16T22:58:09.896Z,98662.38
2022-11-16T23:00:42.036Z,98666.16
2022-11-16T23:03:12.348Z,98675.59
2022-11-16T23:05:42.208Z,98666.69
2022-11-16T23:08:09.758Z,98667.75
2022-11-16T23:10:57.282Z,98669.66
2022-11-16T23:13:47.926Z,98667.50
2022-11-16T23:16:15.478Z,98655.66
2022-11-16T23:18:50.542Z,98645.88
2022-11-16T23:21:35.326Z,98645.88
2022-11-16T23:24:20.262Z,98647.78
2022-11-16T23:27:16.710Z,98650.47
2022-11-16T23:29:44.441Z,98653.19
2022-11-16T23:32:11.964Z,98661.56
2022-11-16T23:34:39.494Z,98654.00
2022-11-16T23:37:08.719Z,98662.91
2022-11-16T23:39:36.266Z,98657.50
2022-11-16T23:42:24.120Z,98653.97
2022-11-16T23:44:51.716Z,98667.50
2022-11-16T23:47:21.635Z,98659.94
2022-11-16T23:49:49.271Z,98654.25
2022-11-16T23:52:16.837Z,98649.66
2022-11-16T23:54:44.458Z,98658.84
2022-11-16T23:57:14.894Z,98643.72
2022-11-16T23:59:42.448Z,98649.12
